ANA766 ROAH-RJOO
Flight info
| Callsign | ANA766 |
|---|---|
| Flight time | 1h 29m |
| Altitude | 39000 |
| Route | AMAMI Y53 MADOG Y753 IZUMI |
| Aircraft | B772/H-SDE2E3FGHIJ5LORVWXY/LB1D1 |
Departure
| Time | 2026-04-30 20:33 |
|---|---|
| Airport | Naha International Airport (ROAH) |
Arrival
| Time | 2026-04-30 22:02 |
|---|---|
| Airport | Osaka Itami International Airport (RJOO) |
| Time | Latitude | Longitude | Altitude | Speed | Heading |
|---|---|---|---|---|---|
| 2026-04-30 20:12 | 26.20717 | 127.64924 | 29 ft | 0 kts | 27° |
| 2026-04-30 20:21 | 26.20716 | 127.64924 | 29 ft | 2 kts | 27° |
| 2026-04-30 20:22 | 26.20702 | 127.64915 | 26 ft | 4 kts | 36° |
| 2026-04-30 20:22 | 26.20683 | 127.64901 | 31 ft | 4 kts | 27° |
| 2026-04-30 20:22 | 26.20662 | 127.64893 | 31 ft | 4 kts | 351° |
| 2026-04-30 20:22 | 26.20645 | 127.64901 | 31 ft | 4 kts | 303° |
| 2026-04-30 20:23 | 26.20637 | 127.64925 | 31 ft | 4 kts | 271° |
| 2026-04-30 20:23 | 26.20637 | 127.64955 | 31 ft | 4 kts | 268° |
| 2026-04-30 20:23 | 26.20638 | 127.64970 | 31 ft | 0 kts | 268° |
| 2026-04-30 20:26 | 26.20637 | 127.64939 | 31 ft | 5 kts | 268° |
| 2026-04-30 20:27 | 26.20620 | 127.64784 | 28 ft | 12 kts | 240° |
| 2026-04-30 20:27 | 26.20467 | 127.64752 | 24 ft | 12 kts | 177° |
| 2026-04-30 20:28 | 26.20307 | 127.64760 | 24 ft | 12 kts | 177° |
| 2026-04-30 20:28 | 26.20037 | 127.64773 | 24 ft | 23 kts | 177° |
| 2026-04-30 20:29 | 26.19722 | 127.64788 | 23 ft | 23 kts | 177° |
| 2026-04-30 20:30 | 26.19249 | 127.64810 | 22 ft | 23 kts | 178° |
| 2026-04-30 20:30 | 26.18778 | 127.64832 | 23 ft | 23 kts | 177° |
| 2026-04-30 20:31 | 26.18307 | 127.64853 | 23 ft | 22 kts | 184° |
| 2026-04-30 20:32 | 26.18324 | 127.64646 | 22 ft | 6 kts | 356° |
| 2026-04-30 20:32 | 26.18990 | 127.64614 | 25 ft | 115 kts | 358° |
| 2026-04-30 20:33 | 26.19981 | 127.64570 | 288 ft | 156 kts | 355° |
| 2026-04-30 20:33 | 26.22283 | 127.64431 | 2027 ft | 170 kts | 355° |
| 2026-04-30 20:33 | 26.23524 | 127.64383 | 2364 ft | 189 kts | 356° |
| 2026-04-30 20:34 | 26.26348 | 127.63853 | 2748 ft | 227 kts | 330° |
| 2026-04-30 20:34 | 26.29175 | 127.62017 | 3859 ft | 244 kts | 327° |
| 2026-04-30 20:35 | 26.30678 | 127.61059 | 4437 ft | 253 kts | 326° |
| 2026-04-30 20:35 | 26.32223 | 127.60077 | 5088 ft | 258 kts | 325° |
| 2026-04-30 20:35 | 26.35406 | 127.58061 | 6413 ft | 267 kts | 325° |
| 2026-04-30 20:36 | 26.37032 | 127.57034 | 7113 ft | 269 kts | 324° |
| 2026-04-30 20:36 | 26.38647 | 127.56014 | 7819 ft | 271 kts | 324° |
| 2026-04-30 20:36 | 26.41066 | 127.53068 | 8995 ft | 260 kts | 281° |
| 2026-04-30 20:37 | 26.41187 | 127.51089 | 9767 ft | 256 kts | 262° |
| 2026-04-30 20:37 | 26.40741 | 127.49159 | 10391 ft | 261 kts | 246° |
| 2026-04-30 20:37 | 26.39659 | 127.47399 | 10558 ft | 289 kts | 232° |
| 2026-04-30 20:37 | 26.38255 | 127.45659 | 10921 ft | 309 kts | 230° |
| 2026-04-30 20:38 | 26.36807 | 127.43881 | 11622 ft | 317 kts | 231° |
| 2026-04-30 20:38 | 26.35179 | 127.42201 | 12328 ft | 327 kts | 216° |
| 2026-04-30 20:38 | 26.33063 | 127.41144 | 13230 ft | 340 kts | 201° |
| 2026-04-30 20:39 | 26.28207 | 127.40793 | 14957 ft | 359 kts | 185° |
| 2026-04-30 20:39 | 26.25681 | 127.40878 | 15689 ft | 366 kts | 185° |
| 2026-04-30 20:39 | 26.23111 | 127.40955 | 16467 ft | 371 kts | 185° |
| 2026-04-30 20:40 | 26.17895 | 127.41036 | 18035 ft | 382 kts | 186° |
| 2026-04-30 20:40 | 26.15225 | 127.41188 | 18610 ft | 392 kts | 176° |
| 2026-04-30 20:40 | 26.12594 | 127.42297 | 19139 ft | 417 kts | 154° |
| 2026-04-30 20:41 | 26.08913 | 127.47479 | 20472 ft | 451 kts | 109° |
| 2026-04-30 20:41 | 26.08508 | 127.50957 | 21129 ft | 459 kts | 86° |
| 2026-04-30 20:41 | 26.09014 | 127.54463 | 21675 ft | 461 kts | 76° |
| 2026-04-30 20:41 | 26.09750 | 127.57920 | 22216 ft | 468 kts | 75° |
| 2026-04-30 20:42 | 26.10540 | 127.61459 | 22815 ft | 474 kts | 75° |
| 2026-04-30 20:42 | 26.11303 | 127.65045 | 23466 ft | 478 kts | 76° |
| 2026-04-30 20:42 | 26.12707 | 127.72342 | 24635 ft | 486 kts | 77° |
| 2026-04-30 20:43 | 26.13378 | 127.76049 | 25228 ft | 489 kts | 78° |
| 2026-04-30 20:43 | 26.14047 | 127.79784 | 25824 ft | 493 kts | 78° |
| 2026-04-30 20:43 | 26.14722 | 127.83541 | 26357 ft | 497 kts | 78° |
| 2026-04-30 20:44 | 26.16142 | 127.91096 | 27320 ft | 501 kts | 72° |
| 2026-04-30 20:44 | 26.17596 | 127.94626 | 27619 ft | 503 kts | 53° |
| 2026-04-30 20:44 | 26.22546 | 127.99853 | 28588 ft | 486 kts | 25° |
| 2026-04-30 20:45 | 26.28465 | 128.03680 | 29307 ft | 497 kts | 24° |
| 2026-04-30 20:45 | 26.31470 | 128.05636 | 29757 ft | 500 kts | 25° |
| 2026-04-30 20:45 | 26.34476 | 128.07626 | 30220 ft | 503 kts | 25° |
| 2026-04-30 20:46 | 26.43517 | 128.13736 | 31259 ft | 512 kts | 25° |
| 2026-04-30 20:46 | 26.46565 | 128.15809 | 31581 ft | 515 kts | 25° |
| 2026-04-30 20:47 | 26.52722 | 128.19997 | 32202 ft | 520 kts | 25° |
| 2026-04-30 20:47 | 26.55834 | 128.22114 | 32482 ft | 522 kts | 25° |
| 2026-04-30 20:48 | 26.62042 | 128.26338 | 33008 ft | 527 kts | 25° |
| 2026-04-30 20:48 | 26.65183 | 128.28477 | 33267 ft | 529 kts | 25° |
| 2026-04-30 20:48 | 26.68309 | 128.30716 | 33556 ft | 535 kts | 31° |
| 2026-04-30 20:48 | 26.71023 | 128.33604 | 33874 ft | 544 kts | 46° |
| 2026-04-30 20:49 | 26.73371 | 128.36955 | 34164 ft | 546 kts | 49° |
| 2026-04-30 20:49 | 26.75615 | 128.40331 | 34423 ft | 547 kts | 50° |
| 2026-04-30 20:49 | 26.77902 | 128.43759 | 34714 ft | 547 kts | 49° |
| 2026-04-30 20:50 | 26.82581 | 128.50507 | 35297 ft | 547 kts | 47° |
| 2026-04-30 20:50 | 26.84924 | 128.53798 | 35565 ft | 547 kts | 47° |
| 2026-04-30 20:50 | 26.87308 | 128.57136 | 35827 ft | 547 kts | 47° |
| 2026-04-30 20:50 | 26.89682 | 128.60475 | 36116 ft | 548 kts | 47° |
| 2026-04-30 20:51 | 26.92075 | 128.63811 | 36362 ft | 546 kts | 44° |
| 2026-04-30 20:51 | 26.97960 | 128.68737 | 36698 ft | 527 kts | 21° |
| 2026-04-30 20:51 | 27.01227 | 128.70624 | 36890 ft | 528 kts | 20° |
| 2026-04-30 20:52 | 27.04501 | 128.72490 | 37161 ft | 528 kts | 20° |
| 2026-04-30 20:52 | 27.07783 | 128.74383 | 37454 ft | 527 kts | 20° |
| 2026-04-30 20:52 | 27.14283 | 128.78240 | 37956 ft | 529 kts | 21° |
| 2026-04-30 20:53 | 27.17521 | 128.80200 | 38192 ft | 529 kts | 21° |
| 2026-04-30 20:53 | 27.20759 | 128.82174 | 38430 ft | 530 kts | 21° |
| 2026-04-30 20:53 | 27.23956 | 128.84127 | 38658 ft | 530 kts | 21° |
| 2026-04-30 20:54 | 27.30450 | 128.88095 | 38928 ft | 532 kts | 21° |
| 2026-04-30 20:54 | 27.33717 | 128.90089 | 38985 ft | 533 kts | 21° |
| 2026-04-30 20:55 | 27.43499 | 128.96064 | 39006 ft | 532 kts | 21° |
| 2026-04-30 20:55 | 27.50011 | 129.00046 | 39014 ft | 532 kts | 21° |
| 2026-04-30 20:56 | 27.59741 | 129.06006 | 39018 ft | 533 kts | 21° |
| 2026-04-30 20:57 | 27.69523 | 129.12011 | 39021 ft | 534 kts | 21° |
| 2026-04-30 20:57 | 27.76015 | 129.16004 | 39013 ft | 534 kts | 21° |
| 2026-04-30 20:58 | 27.85829 | 129.22049 | 39015 ft | 535 kts | 21° |
| 2026-04-30 20:58 | 27.92386 | 129.26095 | 39015 ft | 536 kts | 21° |
| 2026-04-30 20:59 | 28.02197 | 129.32160 | 39012 ft | 538 kts | 21° |
| 2026-04-30 21:00 | 28.15348 | 129.40310 | 39005 ft | 540 kts | 21° |
| 2026-04-30 21:01 | 28.25256 | 129.46468 | 39006 ft | 540 kts | 21° |
| 2026-04-30 21:02 | 28.35141 | 129.52619 | 38973 ft | 543 kts | 21° |
| 2026-04-30 21:02 | 28.41771 | 129.56756 | 38960 ft | 545 kts | 21° |
| 2026-04-30 21:03 | 28.48368 | 129.61075 | 38951 ft | 550 kts | 25° |
| 2026-04-30 21:03 | 28.54809 | 129.65841 | 38946 ft | 552 kts | 27° |
| 2026-04-30 21:04 | 28.61186 | 129.70643 | 38961 ft | 552 kts | 27° |
| 2026-04-30 21:04 | 28.70873 | 129.77794 | 38973 ft | 552 kts | 26° |
| 2026-04-30 21:05 | 28.77351 | 129.82541 | 38981 ft | 553 kts | 26° |
| 2026-04-30 21:05 | 28.83828 | 129.87301 | 38985 ft | 554 kts | 26° |
| 2026-04-30 21:06 | 28.90311 | 129.92080 | 38982 ft | 555 kts | 26° |
| 2026-04-30 21:06 | 28.96760 | 129.96842 | 38975 ft | 555 kts | 26° |
| 2026-04-30 21:07 | 29.03259 | 130.01647 | 38972 ft | 556 kts | 26° |
| 2026-04-30 21:07 | 29.09768 | 130.06467 | 38974 ft | 557 kts | 26° |
| 2026-04-30 21:08 | 29.16245 | 130.11271 | 38968 ft | 558 kts | 26° |
| 2026-04-30 21:08 | 29.22767 | 130.16116 | 38968 ft | 559 kts | 26° |
| 2026-04-30 21:09 | 29.29291 | 130.20970 | 38964 ft | 559 kts | 26° |
| 2026-04-30 21:09 | 29.34486 | 130.24839 | 38962 ft | 560 kts | 26° |
| 2026-04-30 21:10 | 29.41027 | 130.29717 | 38960 ft | 561 kts | 26° |
| 2026-04-30 21:10 | 29.47575 | 130.34609 | 38961 ft | 562 kts | 26° |
| 2026-04-30 21:11 | 29.54087 | 130.39483 | 38961 ft | 563 kts | 26° |
| 2026-04-30 21:11 | 29.60667 | 130.44415 | 38955 ft | 564 kts | 26° |
| 2026-04-30 21:12 | 29.67249 | 130.49357 | 38947 ft | 565 kts | 27° |
| 2026-04-30 21:12 | 29.73840 | 130.54314 | 38950 ft | 565 kts | 27° |
| 2026-04-30 21:13 | 29.80402 | 130.59257 | 38950 ft | 567 kts | 27° |
| 2026-04-30 21:13 | 29.87011 | 130.64243 | 38951 ft | 568 kts | 27° |
| 2026-04-30 21:14 | 29.93596 | 130.69220 | 38945 ft | 569 kts | 27° |
| 2026-04-30 21:14 | 30.00226 | 130.74238 | 38939 ft | 570 kts | 27° |
| 2026-04-30 21:15 | 30.06870 | 130.79274 | 38939 ft | 571 kts | 27° |
| 2026-04-30 21:15 | 30.13512 | 130.84317 | 38940 ft | 571 kts | 27° |
| 2026-04-30 21:16 | 30.20129 | 130.89351 | 38940 ft | 573 kts | 27° |
| 2026-04-30 21:16 | 30.26791 | 130.94428 | 38938 ft | 574 kts | 27° |
| 2026-04-30 21:17 | 30.33462 | 130.99520 | 38931 ft | 574 kts | 27° |
| 2026-04-30 21:17 | 30.40108 | 131.04602 | 38914 ft | 575 kts | 27° |
| 2026-04-30 21:18 | 30.46787 | 131.09718 | 38921 ft | 575 kts | 27° |
| 2026-04-30 21:18 | 30.53485 | 131.14855 | 38922 ft | 576 kts | 27° |
| 2026-04-30 21:19 | 30.60138 | 131.19969 | 38923 ft | 576 kts | 27° |
| 2026-04-30 21:19 | 30.66834 | 131.25125 | 38918 ft | 577 kts | 27° |
| 2026-04-30 21:20 | 30.73533 | 131.30294 | 38911 ft | 578 kts | 27° |
| 2026-04-30 21:20 | 30.80235 | 131.35473 | 38909 ft | 578 kts | 27° |
| 2026-04-30 21:21 | 30.86940 | 131.40663 | 38915 ft | 579 kts | 27° |
| 2026-04-30 21:22 | 30.96982 | 131.48453 | 38908 ft | 580 kts | 28° |
| 2026-04-30 21:23 | 31.10393 | 131.58888 | 38893 ft | 582 kts | 28° |
| 2026-04-30 21:23 | 31.20488 | 131.66768 | 38897 ft | 583 kts | 28° |
| 2026-04-30 21:24 | 31.27249 | 131.72056 | 38888 ft | 583 kts | 28° |
| 2026-04-30 21:24 | 31.34005 | 131.77350 | 38883 ft | 584 kts | 28° |
| 2026-04-30 21:25 | 31.44104 | 131.85284 | 38878 ft | 585 kts | 28° |
| 2026-04-30 21:26 | 31.54272 | 131.93297 | 38859 ft | 586 kts | 29° |
| 2026-04-30 21:27 | 31.64435 | 132.01326 | 38854 ft | 587 kts | 29° |
| 2026-04-30 21:27 | 31.71170 | 132.06659 | 38850 ft | 588 kts | 29° |
| 2026-04-30 21:28 | 31.81361 | 132.14747 | 38851 ft | 589 kts | 29° |
| 2026-04-30 21:29 | 31.91535 | 132.22843 | 38828 ft | 590 kts | 30° |
| 2026-04-30 21:30 | 32.08211 | 132.36353 | 38814 ft | 595 kts | 37° |
| 2026-04-30 21:31 | 32.16664 | 132.47122 | 38797 ft | 597 kts | 58° |
| 2026-04-30 21:31 | 32.21042 | 132.55450 | 38792 ft | 596 kts | 62° |
| 2026-04-30 21:32 | 32.27474 | 132.68048 | 38788 ft | 597 kts | 61° |
| 2026-04-30 21:32 | 32.31812 | 132.76352 | 38789 ft | 597 kts | 60° |
| 2026-04-30 21:33 | 32.38387 | 132.88881 | 38771 ft | 595 kts | 61° |
| 2026-04-30 21:34 | 32.42739 | 132.97221 | 38770 ft | 594 kts | 61° |
| 2026-04-30 21:34 | 32.49208 | 133.09667 | 38770 ft | 592 kts | 61° |
| 2026-04-30 21:35 | 32.53511 | 133.17968 | 38764 ft | 591 kts | 61° |
| 2026-04-30 21:35 | 32.57786 | 133.26231 | 38758 ft | 590 kts | 62° |
| 2026-04-30 21:36 | 32.62063 | 133.34519 | 38760 ft | 589 kts | 62° |
| 2026-04-30 21:37 | 32.70538 | 133.51185 | 38742 ft | 588 kts | 63° |
| 2026-04-30 21:37 | 32.74671 | 133.59496 | 38732 ft | 588 kts | 63° |
| 2026-04-30 21:38 | 32.78851 | 133.67879 | 38739 ft | 587 kts | 63° |
| 2026-04-30 21:38 | 32.83012 | 133.76233 | 38744 ft | 587 kts | 63° |
| 2026-04-30 21:39 | 32.87154 | 133.84606 | 38732 ft | 587 kts | 63° |
| 2026-04-30 21:39 | 32.91272 | 133.92966 | 38725 ft | 587 kts | 63° |
| 2026-04-30 21:40 | 32.95397 | 134.01351 | 38731 ft | 586 kts | 63° |
| 2026-04-30 21:40 | 32.99485 | 134.09677 | 38718 ft | 585 kts | 64° |
| 2026-04-30 21:41 | 33.03656 | 134.18009 | 38713 ft | 586 kts | 59° |
| 2026-04-30 21:41 | 33.08717 | 134.25650 | 38717 ft | 588 kts | 49° |
| 2026-04-30 21:42 | 33.14678 | 134.32333 | 38713 ft | 587 kts | 39° |
| 2026-04-30 21:42 | 33.20965 | 134.38605 | 38714 ft | 587 kts | 39° |
| 2026-04-30 21:43 | 33.27182 | 134.44859 | 38705 ft | 587 kts | 40° |
| 2026-04-30 21:43 | 33.33405 | 134.51242 | 38694 ft | 588 kts | 40° |
| 2026-04-30 21:44 | 33.39563 | 134.57600 | 38694 ft | 588 kts | 40° |
| 2026-04-30 21:44 | 33.45769 | 134.64005 | 38695 ft | 588 kts | 40° |
| 2026-04-30 21:45 | 33.51971 | 134.70411 | 38682 ft | 587 kts | 40° |
| 2026-04-30 21:45 | 33.58153 | 134.76747 | 38690 ft | 586 kts | 38° |
| 2026-04-30 21:46 | 33.64867 | 134.82269 | 38684 ft | 584 kts | 28° |
| 2026-04-30 21:46 | 33.70635 | 134.86370 | 38475 ft | 569 kts | 28° |
| 2026-04-30 21:47 | 33.73953 | 134.88743 | 37656 ft | 554 kts | 28° |
| 2026-04-30 21:47 | 33.77262 | 134.91150 | 35979 ft | 558 kts | 29° |
| 2026-04-30 21:47 | 33.80599 | 134.93608 | 34095 ft | 568 kts | 30° |
| 2026-04-30 21:47 | 33.83996 | 134.96122 | 32012 ft | 575 kts | 30° |
| 2026-04-30 21:48 | 33.87416 | 134.98659 | 30222 ft | 574 kts | 31° |
| 2026-04-30 21:48 | 33.90790 | 135.01165 | 28613 ft | 563 kts | 31° |
| 2026-04-30 21:48 | 33.94076 | 135.03610 | 27244 ft | 547 kts | 31° |
| 2026-04-30 21:48 | 33.97239 | 135.05964 | 25963 ft | 532 kts | 31° |
| 2026-04-30 21:49 | 34.00351 | 135.08282 | 24676 ft | 519 kts | 31° |
| 2026-04-30 21:49 | 34.03395 | 135.10549 | 23389 ft | 509 kts | 31° |
| 2026-04-30 21:49 | 34.06379 | 135.12773 | 21941 ft | 499 kts | 31° |
| 2026-04-30 21:49 | 34.09300 | 135.14954 | 20658 ft | 486 kts | 30° |
| 2026-04-30 21:50 | 34.12145 | 135.17080 | 19436 ft | 474 kts | 30° |
| 2026-04-30 21:50 | 34.14915 | 135.19150 | 18264 ft | 463 kts | 30° |
| 2026-04-30 21:50 | 34.17630 | 135.21179 | 17021 ft | 452 kts | 30° |
| 2026-04-30 21:50 | 34.20268 | 135.23153 | 15960 ft | 437 kts | 30° |
| 2026-04-30 21:51 | 34.22736 | 135.25015 | 15508 ft | 409 kts | 31° |
| 2026-04-30 21:51 | 34.25026 | 135.26848 | 15181 ft | 382 kts | 32° |
| 2026-04-30 21:51 | 34.27169 | 135.28616 | 14769 ft | 363 kts | 32° |
| 2026-04-30 21:51 | 34.29216 | 135.30310 | 14242 ft | 351 kts | 32° |
| 2026-04-30 21:52 | 34.31207 | 135.31950 | 13648 ft | 343 kts | 32° |
| 2026-04-30 21:52 | 34.33169 | 135.33558 | 12945 ft | 337 kts | 32° |
| 2026-04-30 21:52 | 34.35100 | 135.35139 | 12234 ft | 333 kts | 33° |
| 2026-04-30 21:52 | 34.36368 | 135.36175 | 11773 ft | 330 kts | 33° |
| 2026-04-30 21:53 | 34.38851 | 135.38205 | 10841 ft | 324 kts | 32° |
| 2026-04-30 21:53 | 34.40681 | 135.39701 | 10157 ft | 319 kts | 32° |
| 2026-04-30 21:53 | 34.42536 | 135.41217 | 9447 ft | 315 kts | 32° |
| 2026-04-30 21:53 | 34.44218 | 135.42830 | 8686 ft | 311 kts | 50° |
| 2026-04-30 21:54 | 34.45371 | 135.45011 | 7921 ft | 305 kts | 64° |
| 2026-04-30 21:54 | 34.46370 | 135.47260 | 7228 ft | 302 kts | 64° |
| 2026-04-30 21:54 | 34.47348 | 135.49446 | 6847 ft | 288 kts | 64° |
| 2026-04-30 21:54 | 34.47993 | 135.50877 | 6656 ft | 288 kts | 64° |
| 2026-04-30 21:55 | 34.49296 | 135.53752 | 6260 ft | 296 kts | 64° |
| 2026-04-30 21:55 | 34.50296 | 135.55942 | 5929 ft | 297 kts | 64° |
| 2026-04-30 21:55 | 34.51306 | 135.58141 | 5582 ft | 298 kts | 64° |
| 2026-04-30 21:55 | 34.52318 | 135.60344 | 5250 ft | 298 kts | 64° |
| 2026-04-30 21:56 | 34.53329 | 135.62536 | 4939 ft | 296 kts | 63° |
| 2026-04-30 21:56 | 34.54652 | 135.64365 | 4703 ft | 293 kts | 35° |
| 2026-04-30 21:56 | 34.56473 | 135.65320 | 4570 ft | 281 kts | 9° |
| 2026-04-30 21:56 | 34.58349 | 135.65477 | 4478 ft | 265 kts | 356° |
| 2026-04-30 21:57 | 34.60150 | 135.65332 | 4298 ft | 248 kts | 338° |
| 2026-04-30 21:57 | 34.61501 | 135.64291 | 4187 ft | 215 kts | 304° |
| 2026-04-30 21:57 | 34.62164 | 135.63440 | 4108 ft | 209 kts | 306° |
| 2026-04-30 21:57 | 34.63185 | 135.62183 | 3845 ft | 206 kts | 308° |
| 2026-04-30 21:58 | 34.64193 | 135.60969 | 3574 ft | 203 kts | 309° |
| 2026-04-30 21:58 | 34.65507 | 135.59385 | 3275 ft | 199 kts | 310° |
| 2026-04-30 21:58 | 34.66154 | 135.58602 | 3081 ft | 198 kts | 310° |
| 2026-04-30 21:58 | 34.67120 | 135.57433 | 2791 ft | 191 kts | 312° |
| 2026-04-30 21:59 | 34.68050 | 135.56306 | 2547 ft | 185 kts | 312° |
| 2026-04-30 21:59 | 34.68951 | 135.55212 | 2304 ft | 183 kts | 314° |
| 2026-04-30 21:59 | 34.69851 | 135.54123 | 2086 ft | 184 kts | 313° |
| 2026-04-30 22:00 | 34.71636 | 135.51953 | 1565 ft | 171 kts | 319° |
| 2026-04-30 22:00 | 34.73218 | 135.50040 | 1173 ft | 156 kts | 319° |
| 2026-04-30 22:00 | 34.73955 | 135.49143 | 941 ft | 153 kts | 320° |
| 2026-04-30 22:01 | 34.74698 | 135.48241 | 726 ft | 147 kts | 321° |
| 2026-04-30 22:01 | 34.75423 | 135.47364 | 589 ft | 153 kts | 321° |
| 2026-04-30 22:01 | 34.76171 | 135.46454 | 420 ft | 152 kts | 319° |
| 2026-04-30 22:01 | 34.76915 | 135.45557 | 220 ft | 151 kts | 321° |
| 2026-04-30 22:02 | 34.77646 | 135.44665 | 54 ft | 136 kts | 317° |
| 2026-04-30 22:02 | 34.78228 | 135.43964 | 51 ft | 99 kts | 315° |
| 2026-04-30 22:02 | 34.78609 | 135.43503 | 48 ft | 55 kts | 315° |
| 2026-04-30 22:02 | 34.78779 | 135.43296 | 50 ft | 20 kts | 315° |
| 2026-04-30 22:03 | 34.78879 | 135.43177 | 51 ft | 20 kts | 316° |
| 2026-04-30 22:03 | 34.78979 | 135.43057 | 51 ft | 20 kts | 314° |
| 2026-04-30 22:03 | 34.79080 | 135.42940 | 50 ft | 20 kts | 327° |
| 2026-04-30 22:03 | 34.79207 | 135.42935 | 51 ft | 18 kts | 37° |
| 2026-04-30 22:04 | 34.79295 | 135.43047 | 48 ft | 18 kts | 45° |
| 2026-04-30 22:04 | 34.79379 | 135.43158 | 49 ft | 17 kts | 63° |
| 2026-04-30 22:04 | 34.79255 | 135.43379 | 49 ft | 17 kts | 135° |
| 2026-04-30 22:05 | 34.79174 | 135.43477 | 49 ft | 17 kts | 135° |
| 2026-04-30 22:05 | 34.79093 | 135.43576 | 47 ft | 17 kts | 135° |
| 2026-04-30 22:05 | 34.79012 | 135.43673 | 48 ft | 13 kts | 135° |
| 2026-04-30 22:05 | 34.78954 | 135.43744 | 50 ft | 12 kts | 135° |
| 2026-04-30 22:06 | 34.78897 | 135.43814 | 51 ft | 12 kts | 135° |
| 2026-04-30 22:06 | 34.78783 | 135.43953 | 49 ft | 12 kts | 135° |
| 2026-04-30 22:06 | 34.78733 | 135.44028 | 48 ft | 12 kts | 108° |
| 2026-04-30 22:07 | 34.78749 | 135.44121 | 50 ft | 12 kts | 65° |
| 2026-04-30 22:07 | 34.78788 | 135.44206 | 48 ft | 12 kts | 67° |
| 2026-04-30 22:07 | 34.78812 | 135.44278 | 47 ft | 4 kts | 68° |
| 2026-04-30 22:07 | 34.78813 | 135.44280 | 50 ft | 0 kts | 68° |